Time;durP1;ratioP1;P1;durP2;ratioP2;P2;SDS_P1;SDS_P2;PMS_P1;PMS_P2;Temp;Humidity;BMP_temperature;BMP_pressure;BME280_temperature;BME280_humidity;BME280_pressure;Samples;Min_cycle;Max_cycle;Signal;HPM_P1;HPM_P2
2022/08/17 00:02:57;;;;;;;26.33;15.93;;;;;;;;;;6194861;28;20019;-78
2022/08/17 00:06:03;;;;;;;28.55;17.02;;;;;;;;;;6183529;28;20459;-78
2022/08/17 00:09:04;;;;;;;21.10;15.38;;;;;;;;;;6185046;28;20492;-78
2022/08/17 00:12:04;;;;;;;19.27;15.80;;;;;;;;;;6193647;28;20023;-78
2022/08/17 00:15:05;;;;;;;20.17;12.97;;;;;;;;;;6184111;28;20030;-77
2022/08/17 00:18:05;;;;;;;23.23;15.87;;;;;;;;;;6189267;28;20023;-77
2022/08/17 00:21:06;;;;;;;22.37;16.33;;;;;;;;;;6187408;28;20110;-77
2022/08/17 00:24:07;;;;;;;22.35;16.38;;;;;;;;;;6179458;28;20363;-78
2022/08/17 00:27:07;;;;;;;22.27;15.13;;;;;;;;;;6183112;28;20030;-78
2022/08/17 00:30:08;;;;;;;26.83;15.97;;;;;;;;;;6189365;28;20063;-78
2022/08/17 00:33:10;;;;;;;19.70;14.48;;;;;;;;;;6182993;28;20026;-77
2022/08/17 00:36:12;;;;;;;22.85;14.02;;;;;;;;;;6177814;28;20545;-78
2022/08/17 00:39:12;;;;;;;;;;;;;;;;;;6188796;28;20558;-77
2022/08/17 00:42:17;;;;;;;21.08;15.07;;;;;;;;;;6195381;28;20412;-77
2022/08/17 00:45:19;;;;;;;22.80;15.38;;;;;;;;;;6183614;28;20022;-77
2022/08/17 00:48:19;;;;;;;;;;;;;;;;;;6189739;28;20153;-77
2022/08/17 00:51:39;;;;;;;16.60;13.70;;;;;;;;;;6191182;28;19905;-77
2022/08/17 00:54:40;;;;;;;20.80;14.60;;;;;;;;;;6181370;28;20034;-77
2022/08/17 00:57:45;;;;;;;23.83;16.30;;;;;;;;;;6185008;28;20133;-77
2022/08/17 01:00:45;;;;;;;24.02;15.05;;;;;;;;;;6189464;28;20023;-77
2022/08/17 01:03:46;;;;;;;22.33;15.97;;;;;;;;;;6185916;28;20042;-78
2022/08/17 01:06:48;;;;;;;25.00;15.83;;;;;;;;;;6175986;28;20125;-77
2022/08/17 01:09:50;;;;;;;23.05;15.45;;;;;;;;;;6188379;28;20121;-78
2022/08/17 01:12:50;;;;;;;22.13;14.38;;;;;;;;;;6189888;28;20030;-77
2022/08/17 01:15:53;;;;;;;24.07;13.27;;;;;;;;;;6196250;28;20112;-77
2022/08/17 01:18:55;;;;;;;19.58;14.10;;;;;;;;;;6191471;28;20030;-77
2022/08/17 01:21:59;;;;;;;19.80;13.85;;;;;;;;;;6191491;28;20022;-77
2022/08/17 01:25:01;;;;;;;18.77;12.93;;;;;;;;;;6189475;28;20034;-77
2022/08/17 01:28:01;;;;;;;20.70;14.35;;;;;;;;;;6196298;28;20026;-77
2022/08/17 01:31:03;;;;;;;18.07;13.70;;;;;;;;;;6183670;28;20032;-78
2022/08/17 01:34:07;;;;;;;19.85;13.18;;;;;;;;;;6194425;28;20050;-77
2022/08/17 01:37:08;;;;;;;15.40;11.80;;;;;;;;;;6178712;28;20022;-77
2022/08/17 01:40:13;;;;;;;19.20;13.30;;;;;;;;;;6183307;28;20093;-77
2022/08/17 01:43:21;;;;;;;15.45;10.95;;;;;;;;;;6187428;28;20030;-77
2022/08/17 01:46:26;;;;;;;19.55;14.20;;;;;;;;;;6192062;28;20131;-77
2022/08/17 01:49:27;;;;;;;18.60;13.73;;;;;;;;;;6178857;28;20042;-77
2022/08/17 01:52:27;;;;;;;14.73;10.13;;;;;;;;;;6180421;28;20026;-77
2022/08/17 01:55:31;;;;;;;15.07;10.30;;;;;;;;;;6186017;28;20029;-77
2022/08/17 01:58:33;;;;;;;20.30;15.55;;;;;;;;;;6190678;28;20088;-77
2022/08/17 02:01:33;;;;;;;23.75;14.00;;;;;;;;;;6193414;28;20026;-77
2022/08/17 02:04:33;;;;;;;19.57;15.80;;;;;;;;;;6171989;28;20081;-77
2022/08/17 02:07:35;;;;;;;22.10;12.97;;;;;;;;;;6181730;28;20102;-77
2022/08/17 02:10:35;;;;;;;18.10;14.52;;;;;;;;;;6173101;28;20485;-77
2022/08/17 02:13:36;;;;;;;17.23;14.43;;;;;;;;;;6189040;28;20040;-77
2022/08/17 02:16:38;;;;;;;16.83;12.82;;;;;;;;;;6186537;28;20455;-77
2022/08/17 02:19:39;;;;;;;21.73;14.52;;;;;;;;;;6189370;28;20022;-77
2022/08/17 02:22:41;;;;;;;20.20;13.00;;;;;;;;;;6180604;28;20527;-77
2022/08/17 02:25:42;;;;;;;23.45;11.60;;;;;;;;;;6181745;28;20034;-77
2022/08/17 02:28:42;;;;;;;18.38;13.00;;;;;;;;;;6190940;28;20029;-77
2022/08/17 02:31:43;;;;;;;18.55;14.63;;;;;;;;;;6191971;28;20097;-77
2022/08/17 02:34:43;;;;;;;19.27;14.40;;;;;;;;;;6183207;28;20254;-77
2022/08/17 02:37:43;;;;;;;21.27;14.40;;;;;;;;;;6174055;28;20030;-77
2022/08/17 02:40:43;;;;;;;20.73;13.20;;;;;;;;;;6181354;28;20090;-77
2022/08/17 02:43:44;;;;;;;18.43;14.00;;;;;;;;;;6186684;28;20466;-77
2022/08/17 02:46:44;;;;;;;18.87;13.87;;;;;;;;;;6179424;28;20551;-77
2022/08/17 02:49:44;;;;;;;17.57;13.13;;;;;;;;;;6187112;28;20023;-77
2022/08/17 02:52:45;;;;;;;24.23;14.77;;;;;;;;;;6187940;28;20088;-77
2022/08/17 02:55:45;;;;;;;20.53;13.87;;;;;;;;;;6183941;28;20401;-77
2022/08/17 02:58:45;;;;;;;17.03;13.03;;;;;;;;;;6187337;28;20110;-78
2022/08/17 03:01:45;;;;;;;17.67;12.50;;;;;;;;;;6176693;28;20023;-77
2022/08/17 03:04:46;;;;;;;17.67;12.47;;;;;;;;;;6185523;28;20026;-77
2022/08/17 03:07:46;;;;;;;22.00;14.50;;;;;;;;;;6198371;28;20065;-77
2022/08/17 03:10:46;;;;;;;21.57;13.07;;;;;;;;;;6191684;28;20022;-77
2022/08/17 03:13:46;;;;;;;19.37;13.27;;;;;;;;;;6195025;28;20820;-77
2022/08/17 03:16:46;;;;;;;20.10;13.90;;;;;;;;;;6191893;28;20106;-77
2022/08/17 03:19:47;;;;;;;16.43;13.20;;;;;;;;;;6195274;28;20379;-77
2022/08/17 03:22:48;;;;;;;17.55;13.68;;;;;;;;;;6183383;28;20022;-77
2022/08/17 03:25:49;;;;;;;17.85;12.95;;;;;;;;;;6185847;28;20387;-77
2022/08/17 03:28:49;;;;;;;17.73;13.27;;;;;;;;;;6186246;28;20026;-77
2022/08/17 03:31:49;;;;;;;19.57;13.63;;;;;;;;;;6199156;28;20010;-77
2022/08/17 03:34:49;;;;;;;20.63;13.33;;;;;;;;;;6194581;28;20014;-77
2022/08/17 03:37:50;;;;;;;18.87;13.23;;;;;;;;;;6189871;28;20153;-77
2022/08/17 03:40:51;;;;;;;19.73;14.37;;;;;;;;;;6185199;28;20029;-76
2022/08/17 03:43:51;;;;;;;16.60;12.80;;;;;;;;;;6190843;28;20035;-76
2022/08/17 03:56:55;;;;;;;16.33;10.98;;;;;;;;;;6197377;28;20046;-77
2022/08/17 03:59:55;;;;;;;17.58;11.93;;;;;;;;;;6191551;28;20011;-77
2022/08/17 04:02:56;;;;;;;17.37;11.23;;;;;;;;;;6188621;28;20364;-76
2022/08/17 04:05:56;;;;;;;22.07;13.93;;;;;;;;;;6190342;28;20046;-75
2022/08/17 04:08:56;;;;;;;98.00;18.17;;;;;;;;;;6181999;28;20019;-77
2022/08/17 04:11:56;;;;;;;125.40;17.07;;;;;;;;;;6182844;28;20021;-76
2022/08/17 04:14:57;;;;;;;48.80;15.87;;;;;;;;;;6183936;28;20045;-76
2022/08/17 04:17:58;;;;;;;21.23;15.10;;;;;;;;;;6178412;28;20030;-77
2022/08/17 04:20:58;;;;;;;21.00;16.30;;;;;;;;;;6189470;28;20026;-77
2022/08/17 04:23:58;;;;;;;22.40;15.97;;;;;;;;;;6189555;28;20473;-76
2022/08/17 04:27:00;;;;;;;22.90;15.77;;;;;;;;;;6180771;28;20018;-76
2022/08/17 04:30:00;;;;;;;20.85;16.00;;;;;;;;;;6180069;28;20026;-76
2022/08/17 04:33:04;;;;;;;28.83;17.13;;;;;;;;;;6193217;28;20077;-75
2022/08/17 04:36:06;;;;;;;21.75;15.80;;;;;;;;;;6197655;28;20058;-76
2022/08/17 04:39:06;;;;;;;22.67;14.93;;;;;;;;;;6191332;28;20030;-76
2022/08/17 04:42:15;;;;;;;20.23;14.32;;;;;;;;;;6190463;28;20018;-76
2022/08/17 04:45:15;;;;;;;20.48;15.73;;;;;;;;;;6189286;28;20026;-76
2022/08/17 04:48:16;;;;;;;23.07;16.03;;;;;;;;;;6184447;28;20033;-77
2022/08/17 04:51:18;;;;;;;25.00;17.37;;;;;;;;;;6190718;28;20053;-77
2022/08/17 04:54:19;;;;;;;30.65;19.23;;;;;;;;;;6192524;28;20756;-77
2022/08/17 04:57:19;;;;;;;30.02;21.45;;;;;;;;;;6188657;28;20034;-77
2022/08/17 05:00:20;;;;;;;28.17;19.33;;;;;;;;;;6185562;28;20018;-77
2022/08/17 05:03:20;;;;;;;26.30;19.73;;;;;;;;;;6187576;28;20498;-77
2022/08/17 05:06:20;;;;;;;30.83;19.42;;;;;;;;;;6173931;28;20070;-77
2022/08/17 05:09:21;;;;;;;28.10;19.43;;;;;;;;;;6186910;28;20022;-77
2022/08/17 05:12:21;;;;;;;29.50;20.83;;;;;;;;;;6192615;28;20025;-77
2022/08/17 05:15:21;;;;;;;25.17;20.10;;;;;;;;;;6188874;28;20672;-78
2022/08/17 05:18:22;;;;;;;22.95;17.67;;;;;;;;;;6190539;28;20018;-77
2022/08/17 05:21:22;;;;;;;24.93;17.97;;;;;;;;;;6203527;28;20057;-77
2022/08/17 05:24:22;;;;;;;25.92;17.15;;;;;;;;;;6190667;28;20014;-78
2022/08/17 05:27:22;;;;;;;29.00;18.70;;;;;;;;;;6199137;28;20033;-78
2022/08/17 05:30:24;;;;;;;26.43;17.60;;;;;;;;;;6200040;28;20125;-78
2022/08/17 05:33:24;;;;;;;;;;;;;;;;;;6192169;28;20081;-78
2022/08/17 05:36:24;;;;;;;24.95;17.75;;;;;;;;;;6185070;28;19918;-78
2022/08/17 05:39:24;;;;;;;27.50;19.27;;;;;;;;;;6182486;28;20023;-78
2022/08/17 05:42:24;;;;;;;30.27;20.10;;;;;;;;;;6187661;28;20010;-78
2022/08/17 05:45:25;;;;;;;29.83;20.67;;;;;;;;;;6194042;28;20030;-78
2022/08/17 05:48:26;;;;;;;27.15;20.27;;;;;;;;;;6192936;28;20023;-78
2022/08/17 05:51:26;;;;;;;27.58;19.02;;;;;;;;;;6181818;28;20620;-78
2022/08/17 05:54:26;;;;;;;24.77;18.40;;;;;;;;;;6189817;28;20041;-78
2022/08/17 05:57:35;;;;;;;24.75;18.15;;;;;;;;;;6191705;28;20050;-79
2022/08/17 06:00:40;;;;;;;28.95;19.70;;;;;;;;;;6195892;28;20019;-78
2022/08/17 06:03:45;;;;;;;22.85;18.00;;;;;;;;;;6191015;28;20501;-79
2022/08/17 06:06:54;;;;;;;30.63;20.60;;;;;;;;;;6203976;28;20017;-78
2022/08/17 06:09:57;;;;;;;25.63;18.88;;;;;;;;;;6198171;28;20073;-78
2022/08/17 06:13:01;;;;;;;27.88;19.35;;;;;;;;;;6185601;28;20057;-79
2022/08/17 06:16:11;;;;;;;25.92;18.77;;;;;;;;;;6186222;28;20055;-79
2022/08/17 06:19:17;;;;;;;28.45;20.52;;;;;;;;;;6185203;28;20102;-79
2022/08/17 06:22:18;;;;;;;25.40;20.73;;;;;;;;;;6184041;28;20031;-78
2022/08/17 06:25:18;;;;;;;28.55;20.40;;;;;;;;;;6189242;28;20022;-77
2022/08/17 06:28:24;;;;;;;24.70;19.50;;;;;;;;;;6191320;28;20091;-77
2022/08/17 06:31:27;;;;;;;30.02;18.58;;;;;;;;;;6190186;28;20387;-77
2022/08/17 06:34:28;;;;;;;24.65;18.75;;;;;;;;;;6195707;28;20064;-77
2022/08/17 06:37:55;;;;;;;26.02;17.73;;;;;;;;;;6195456;28;20019;-77
2022/08/17 06:41:35;;;;;;;26.55;20.25;;;;;;;;;;6193170;28;20038;-76
2022/08/17 06:44:39;;;;;;;28.65;20.52;;;;;;;;;;6156471;28;20039;-76
2022/08/17 06:47:43;;;;;;;26.45;19.15;;;;;;;;;;6158403;28;20042;-77
2022/08/17 06:50:52;;;;;;;27.48;19.45;;;;;;;;;;6194670;28;20749;-77
2022/08/17 06:54:05;;;;;;;23.58;17.70;;;;;;;;;;6191381;28;20026;-77
2022/08/17 06:57:13;;;;;;;23.77;17.23;;;;;;;;;;6192534;28;20038;-76
2022/08/17 07:00:15;;;;;;;24.05;16.98;;;;;;;;;;6196980;28;20018;-77
2022/08/17 07:03:17;;;;;;;24.02;18.00;;;;;;;;;;6188000;28;20018;-76
2022/08/17 07:06:19;;;;;;;21.73;16.58;;;;;;;;;;6187087;28;20019;-77
2022/08/17 07:09:24;;;;;;;21.90;16.63;;;;;;;;;;6194659;28;20026;-78
2022/08/17 07:12:30;;;;;;;20.45;15.95;;;;;;;;;;6188499;28;20407;-77
2022/08/17 07:15:44;;;;;;;20.60;16.23;;;;;;;;;;6208117;28;20463;-77
2022/08/17 07:18:44;;;;;;;19.77;15.73;;;;;;;;;;6200357;28;20368;-77
2022/08/17 07:21:56;;;;;;;20.27;15.27;;;;;;;;;;6194343;28;20025;-77
2022/08/17 07:25:01;;;;;;;21.42;15.23;;;;;;;;;;6198373;28;20542;-78
2022/08/17 07:28:02;;;;;;;22.27;15.07;;;;;;;;;;6204441;28;20117;-78
2022/08/17 07:31:03;;;;;;;19.35;14.57;;;;;;;;;;6200564;28;20058;-79
2022/08/17 07:34:09;;;;;;;21.05;14.88;;;;;;;;;;6201586;28;20105;-78
2022/08/17 07:37:11;;;;;;;22.10;15.32;;;;;;;;;;6200687;28;20026;-79
2022/08/17 07:40:18;;;;;;;18.88;14.23;;;;;;;;;;6200305;28;20085;-78
2022/08/17 07:43:25;;;;;;;22.88;14.48;;;;;;;;;;6198689;28;20046;-78
2022/08/17 07:49:47;;;;;;;19.30;12.52;;;;;;;;;;6199426;28;20065;-79
2022/08/17 07:52:47;;;;;;;19.08;13.80;;;;;;;;;;6185555;28;20109;-79
2022/08/17 07:55:49;;;;;;;19.20;11.57;;;;;;;;;;6192957;28;20015;-79
2022/08/17 07:59:04;;;;;;;16.65;12.38;;;;;;;;;;6201466;28;20037;-79
2022/08/17 08:02:23;;;;;;;17.52;12.10;;;;;;;;;;6202228;28;20010;-79
2022/08/17 08:05:25;;;;;;;16.07;12.23;;;;;;;;;;6195665;28;20026;-78
2022/08/17 08:08:29;;;;;;;19.02;12.55;;;;;;;;;;6197621;28;20109;-78
2022/08/17 08:11:40;;;;;;;18.55;11.13;;;;;;;;;;6196665;28;20023;-78
2022/08/17 08:14:44;;;;;;;13.40;10.27;;;;;;;;;;6186648;28;20383;-78
2022/08/17 08:17:56;;;;;;;14.30;10.55;;;;;;;;;;6195761;28;20367;-78
2022/08/17 08:21:16;;;;;;;15.25;10.85;;;;;;;;;;6197804;28;20041;-78
2022/08/17 08:24:22;;;;;;;13.43;9.20;;;;;;;;;;6193199;28;20019;-78
2022/08/17 08:27:41;;;;;;;18.77;10.43;;;;;;;;;;6192952;28;20019;-78
2022/08/17 08:30:46;;;;;;;19.65;10.10;;;;;;;;;;6195911;28;20093;-78
2022/08/17 08:34:09;;;;;;;17.05;10.05;;;;;;;;;;6193329;28;20022;-79
2022/08/17 08:37:13;;;;;;;14.68;10.45;;;;;;;;;;6189806;28;20100;-79
2022/08/17 08:40:25;;;;;;;18.67;11.43;;;;;;;;;;6202696;28;20018;-79
2022/08/17 08:43:28;;;;;;;16.05;11.48;;;;;;;;;;6187544;28;20026;-79
2022/08/17 08:46:45;;;;;;;17.17;10.63;;;;;;;;;;6190477;28;20029;-79
2022/08/17 08:49:52;;;;;;;15.80;10.07;;;;;;;;;;6196093;28;20019;-79
2022/08/17 08:53:08;;;;;;;13.57;10.40;;;;;;;;;;6195694;28;20026;-79
2022/08/17 08:56:16;;;;;;;16.13;10.52;;;;;;;;;;6191657;28;20027;-79
2022/08/17 08:59:28;;;;;;;16.33;11.10;;;;;;;;;;6182843;28;20098;-79
2022/08/17 09:02:28;;;;;;;18.70;12.43;;;;;;;;;;6197914;28;20049;-79
2022/08/17 09:05:41;;;;;;;17.48;11.23;;;;;;;;;;6195987;28;20125;-79
2022/08/17 09:08:49;;;;;;;16.40;10.45;;;;;;;;;;6191157;28;20034;-78
2022/08/17 09:12:00;;;;;;;14.23;10.63;;;;;;;;;;6195115;28;20033;-78
2022/08/17 09:15:04;;;;;;;14.25;9.80;;;;;;;;;;6197657;28;20022;-79
2022/08/17 09:18:04;;;;;;;12.70;9.88;;;;;;;;;;6197310;28;20018;-78
2022/08/17 09:21:04;;;;;;;15.30;10.33;;;;;;;;;;6197988;28;20025;-78
2022/08/17 09:24:23;;;;;;;17.63;10.83;;;;;;;;;;6192102;28;20130;-79
2022/08/17 09:27:30;;;;;;;15.10;10.45;;;;;;;;;;6193251;28;20023;-78
2022/08/17 09:30:50;;;;;;;16.55;9.82;;;;;;;;;;6199963;28;20465;-79
2022/08/17 09:33:52;;;;;;;16.98;10.35;;;;;;;;;;6194042;28;20775;-79
2022/08/17 09:36:58;;;;;;;17.00;9.70;;;;;;;;;;6179606;28;20033;-79
2022/08/17 09:40:08;;;;;;;16.23;10.68;;;;;;;;;;6198194;28;20076;-79
2022/08/17 09:43:08;;;;;;;13.43;10.03;;;;;;;;;;6196000;28;20027;-80
2022/08/17 09:46:18;;;;;;;17.20;10.98;;;;;;;;;;6201110;28;20018;-79
2022/08/17 09:49:39;;;;;;;15.97;10.73;;;;;;;;;;6197197;28;20379;-79
2022/08/17 09:52:40;;;;;;;14.18;10.32;;;;;;;;;;6192183;28;20265;-79
2022/08/17 09:55:40;;;;;;;15.75;11.10;;;;;;;;;;6200516;28;20026;-80
2022/08/17 09:59:05;;;;;;;15.30;10.57;;;;;;;;;;6195241;28;20113;-80
2022/08/17 10:02:15;;;;;;;14.32;10.60;;;;;;;;;;6186147;28;20266;-79
2022/08/17 10:05:24;;;;;;;16.10;10.55;;;;;;;;;;6202173;28;20029;-79
2022/08/17 10:08:52;;;;;;;16.57;10.67;;;;;;;;;;6194671;28;20080;-79
2022/08/17 10:12:15;;;;;;;15.65;10.65;;;;;;;;;;6203631;28;20049;-79
2022/08/17 10:15:38;;;;;;;17.95;9.73;;;;;;;;;;6204383;28;20042;-79
2022/08/17 10:18:57;;;;;;;14.35;9.70;;;;;;;;;;6198177;28;20026;-79
2022/08/17 10:28:39;;;;;;;14.60;10.05;;;;;;;;;;6196803;28;20045;-79
2022/08/17 10:31:44;;;;;;;11.95;9.13;;;;;;;;;;6193044;28;20026;-80
2022/08/17 10:34:51;;;;;;;16.60;9.35;;;;;;;;;;6195199;28;20475;-80
2022/08/17 10:38:04;;;;;;;16.83;9.35;;;;;;;;;;6196858;28;20022;-79
2022/08/17 10:41:04;;;;;;;16.67;9.10;;;;;;;;;;6195319;28;20537;-79
2022/08/17 10:44:13;;;;;;;15.53;8.80;;;;;;;;;;6196181;28;20019;-79
2022/08/17 10:47:14;;;;;;;14.48;9.40;;;;;;;;;;6203587;28;20026;-79
2022/08/17 10:50:33;;;;;;;18.05;9.52;;;;;;;;;;6201306;28;20026;-79
2022/08/17 10:53:34;;;;;;;11.63;7.95;;;;;;;;;;6203927;28;20029;-79
2022/08/17 10:56:42;;;;;;;16.75;10.38;;;;;;;;;;6194379;28;20030;-79
2022/08/17 10:59:42;;;;;;;13.77;10.75;;;;;;;;;;6202808;28;20019;-79
2022/08/17 11:02:47;;;;;;;15.33;9.27;;;;;;;;;;6186163;28;20019;-79
2022/08/17 11:05:54;;;;;;;11.13;8.52;;;;;;;;;;6190317;28;20034;-79
2022/08/17 11:08:55;;;;;;;13.25;8.23;;;;;;;;;;6191612;28;20061;-79
2022/08/17 11:12:05;;;;;;;12.50;9.80;;;;;;;;;;6189743;28;20059;-79
2022/08/17 11:15:12;;;;;;;11.37;9.10;;;;;;;;;;6195778;28;20026;-79
2022/08/17 11:18:22;;;;;;;14.52;8.95;;;;;;;;;;6203702;28;20262;-79
2022/08/17 11:21:41;;;;;;;16.00;8.40;;;;;;;;;;6189114;28;20027;-79
2022/08/17 11:24:46;;;;;;;12.75;9.18;;;;;;;;;;6194445;28;20498;-79
2022/08/17 11:27:52;;;;;;;13.18;9.38;;;;;;;;;;6205348;28;20036;-79
2022/08/17 11:30:55;;;;;;;11.60;8.77;;;;;;;;;;6201760;28;20025;-79
2022/08/17 11:34:14;;;;;;;14.20;9.38;;;;;;;;;;6204104;28;20037;-79
2022/08/17 11:37:22;;;;;;;14.55;9.40;;;;;;;;;;6187836;28;20099;-79
2022/08/17 11:40:23;;;;;;;14.25;8.25;;;;;;;;;;6202241;28;20113;-79
2022/08/17 11:43:30;;;;;;;14.15;8.20;;;;;;;;;;6200276;28;20030;-79
2022/08/17 11:53:41;;;;;;;13.60;8.95;;;;;;;;;;6169418;28;20078;-79
2022/08/17 11:56:45;;;;;;;14.80;9.20;;;;;;;;;;6193244;28;20560;-79
2022/08/17 11:59:46;;;;;;;10.85;8.68;;;;;;;;;;6204639;28;20014;-79
2022/08/17 12:02:47;;;;;;;10.63;7.60;;;;;;;;;;6197181;28;20031;-80
2022/08/17 12:05:47;;;;;;;11.77;7.72;;;;;;;;;;6197205;28;20027;-79
2022/08/17 12:09:14;;;;;;;9.38;7.63;;;;;;;;;;6203823;28;20026;-78
2022/08/17 12:12:31;;;;;;;12.50;8.10;;;;;;;;;;6199950;28;20044;-79
2022/08/17 12:15:38;;;;;;;12.70;8.00;;;;;;;;;;6200027;28;20035;-79
2022/08/17 12:18:40;;;;;;;13.30;7.95;;;;;;;;;;6195953;28;20041;-78
2022/08/17 12:21:48;;;;;;;15.18;8.70;;;;;;;;;;6190024;28;20026;-79
2022/08/17 12:25:15;;;;;;;14.73;9.20;;;;;;;;;;6196933;28;20049;-78
2022/08/17 12:28:21;;;;;;;12.45;8.18;;;;;;;;;;6189388;28;20046;-78
2022/08/17 12:31:26;;;;;;;11.88;8.75;;;;;;;;;;6209734;28;20019;-78
2022/08/17 12:34:40;;;;;;;12.30;9.25;;;;;;;;;;6196216;28;20026;-78
2022/08/17 12:37:44;;;;;;;10.35;8.05;;;;;;;;;;6198832;28;20011;-79
2022/08/17 12:40:55;;;;;;;9.63;7.45;;;;;;;;;;6193403;28;20105;-78
2022/08/17 12:43:57;;;;;;;13.90;8.25;;;;;;;;;;6188903;28;20101;-79
2022/08/17 12:47:03;;;;;;;13.70;7.47;;;;;;;;;;6188864;28;20026;-80
2022/08/17 12:50:10;;;;;;;8.48;6.85;;;;;;;;;;6188903;28;20501;-79
2022/08/17 12:53:13;;;;;;;11.52;6.93;;;;;;;;;;6190124;28;20090;-80
2022/08/17 12:56:14;;;;;;;14.20;9.25;;;;;;;;;;6190373;28;20029;-80
2022/08/17 12:59:17;;;;;;;11.85;8.43;;;;;;;;;;6200943;28;20026;-80
2022/08/17 13:02:20;;;;;;;15.75;8.90;;;;;;;;;;6196481;28;20530;-79
2022/08/17 13:05:22;;;;;;;13.98;9.35;;;;;;;;;;6179917;28;20027;-80
2022/08/17 13:08:26;;;;;;;11.65;10.27;;;;;;;;;;6184026;28;20561;-79
2022/08/17 13:11:27;;;;;;;10.65;7.90;;;;;;;;;;6194071;28;20474;-79
2022/08/17 13:14:28;;;;;;;11.02;8.20;;;;;;;;;;6189105;28;20021;-79
2022/08/17 13:17:33;;;;;;;10.07;7.53;;;;;;;;;;6188171;28;20382;-79
2022/08/17 13:20:33;;;;;;;13.95;7.95;;;;;;;;;;6196997;28;20097;-80
2022/08/17 13:23:34;;;;;;;12.98;8.15;;;;;;;;;;6192204;28;20022;-79
2022/08/17 13:26:43;;;;;;;11.48;8.02;;;;;;;;;;6197569;28;20018;-78
2022/08/17 13:29:43;;;;;;;11.88;7.45;;;;;;;;;;6189206;28;20030;-79
2022/08/17 13:32:46;;;;;;;12.27;7.20;;;;;;;;;;6211381;28;20022;-79
2022/08/17 13:35:47;;;;;;;12.82;7.90;;;;;;;;;;6187531;28;20023;-79
2022/08/17 13:38:49;;;;;;;9.65;8.00;;;;;;;;;;6187961;28;20378;-79
2022/08/17 13:41:50;;;;;;;10.23;7.05;;;;;;;;;;6191100;28;20026;-79
2022/08/17 13:44:50;;;;;;;11.80;7.40;;;;;;;;;;6174295;28;20398;-79
2022/08/17 13:48:10;;;;;;;10.60;7.23;;;;;;;;;;6199675;28;20015;-80
2022/08/17 13:51:16;;;;;;;11.13;6.90;;;;;;;;;;6199605;28;20018;-79
2022/08/17 13:54:30;;;;;;;12.45;6.75;;;;;;;;;;6191686;28;20116;-79
2022/08/17 13:57:31;;;;;;;12.65;8.40;;;;;;;;;;6191404;28;20073;-79
2022/08/17 14:00:32;;;;;;;12.48;7.13;;;;;;;;;;6183775;28;20018;-79
2022/08/17 14:03:32;;;;;;;13.00;7.50;;;;;;;;;;6198380;28;20049;-79
2022/08/17 14:06:53;;;;;;;9.27;6.90;;;;;;;;;;6193210;28;20442;-79
2022/08/17 14:09:56;;;;;;;9.43;6.97;;;;;;;;;;6177608;28;20003;-79
2022/08/17 14:12:56;;;;;;;10.82;7.57;;;;;;;;;;6183947;28;20053;-79
2022/08/17 14:15:57;;;;;;;13.07;7.87;;;;;;;;;;6189899;28;20019;-79
2022/08/17 14:18:57;;;;;;;14.40;10.63;;;;;;;;;;6187526;28;20022;-78
2022/08/17 14:21:59;;;;;;;13.77;8.18;;;;;;;;;;6186816;28;20069;-78
2022/08/17 14:25:00;;;;;;;19.70;8.00;;;;;;;;;;6192450;28;20030;-78
2022/08/17 14:28:01;;;;;;;14.50;8.23;;;;;;;;;;6194003;28;20086;-79
2022/08/17 14:31:01;;;;;;;13.80;7.47;;;;;;;;;;6194186;28;20049;-78
2022/08/17 14:34:01;;;;;;;9.80;7.03;;;;;;;;;;6195658;28;20704;-78
2022/08/17 14:37:02;;;;;;;10.87;6.77;;;;;;;;;;6194136;28;20019;-79
2022/08/17 14:40:04;;;;;;;11.90;6.93;;;;;;;;;;6180966;28;20019;-78
2022/08/17 14:43:04;;;;;;;9.90;6.97;;;;;;;;;;6192860;28;20268;-79
2022/08/17 14:46:05;;;;;;;13.40;7.10;;;;;;;;;;6191954;28;20019;-79
2022/08/17 14:49:06;;;;;;;7.97;6.00;;;;;;;;;;6195002;28;20033;-78
2022/08/17 14:52:08;;;;;;;11.40;7.10;;;;;;;;;;6198445;28;20396;-78
2022/08/17 14:55:08;;;;;;;8.02;6.18;;;;;;;;;;6191222;28;20483;-78
2022/08/17 14:58:08;;;;;;;12.70;7.00;;;;;;;;;;6183242;28;20050;-78
2022/08/17 15:01:09;;;;;;;10.00;7.03;;;;;;;;;;6200748;28;20046;-78
2022/08/17 15:04:13;;;;;;;11.52;7.00;;;;;;;;;;6182632;28;20435;-78
2022/08/17 15:07:14;;;;;;;9.02;6.47;;;;;;;;;;6190934;28;20069;-78
2022/08/17 15:10:14;;;;;;;11.80;7.32;;;;;;;;;;6190448;28;20030;-78
2022/08/17 15:13:18;;;;;;;11.95;6.82;;;;;;;;;;6193856;28;20034;-78
2022/08/17 15:16:19;;;;;;;14.77;6.90;;;;;;;;;;6195843;28;20034;-79
2022/08/17 15:19:19;;;;;;;11.55;7.05;;;;;;;;;;6197424;28;20014;-78
2022/08/17 15:22:22;;;;;;;17.20;7.90;;;;;;;;;;6199362;28;20019;-78
2022/08/17 15:25:23;;;;;;;16.20;8.48;;;;;;;;;;6193457;28;20023;-79
2022/08/17 15:28:25;;;;;;;10.48;6.88;;;;;;;;;;6194915;28;20057;-79
2022/08/17 15:31:26;;;;;;;12.68;7.45;;;;;;;;;;6200719;28;20022;-78
2022/08/17 15:34:26;;;;;;;9.25;7.35;;;;;;;;;;6201582;28;20011;-79
2022/08/17 15:37:27;;;;;;;12.53;6.87;;;;;;;;;;6195033;28;20364;-79
2022/08/17 15:40:28;;;;;;;9.95;6.88;;;;;;;;;;6196255;28;20026;-79
2022/08/17 15:43:32;;;;;;;9.00;6.07;;;;;;;;;;6191512;28;20044;-79
2022/08/17 15:46:32;;;;;;;11.15;6.35;;;;;;;;;;6193490;28;20011;-79
2022/08/17 15:49:32;;;;;;;13.93;7.70;;;;;;;;;;6186938;28;20021;-80
2022/08/17 15:52:39;;;;;;;9.00;7.17;;;;;;;;;;6187435;28;20019;-79
2022/08/17 15:55:39;;;;;;;12.13;7.60;;;;;;;;;;6191865;28;20529;-80
2022/08/17 15:58:41;;;;;;;15.17;7.43;;;;;;;;;;6199143;28;20105;-79
2022/08/17 16:01:41;;;;;;;12.73;8.05;;;;;;;;;;6199344;28;20280;-79
2022/08/17 16:04:42;;;;;;;12.80;8.53;;;;;;;;;;6201014;28;20027;-79
2022/08/17 16:07:49;;;;;;;15.13;7.80;;;;;;;;;;6194044;28;20081;-79
2022/08/17 16:10:49;;;;;;;11.95;7.93;;;;;;;;;;6188079;28;20109;-80
2022/08/17 16:13:50;;;;;;;12.73;7.78;;;;;;;;;;6185806;28;20077;-79
2022/08/17 16:16:51;;;;;;;14.85;7.70;;;;;;;;;;6193960;28;19994;-79
2022/08/17 16:19:51;;;;;;;13.57;7.85;;;;;;;;;;6194601;28;20030;-79
2022/08/17 16:22:52;;;;;;;12.45;8.35;;;;;;;;;;6202205;28;20018;-79
2022/08/17 16:25:52;;;;;;;14.52;6.97;;;;;;;;;;6197814;28;20023;-80
2022/08/17 16:28:52;;;;;;;17.98;8.27;;;;;;;;;;6199930;28;20069;-79
2022/08/17 16:31:53;;;;;;;17.10;8.32;;;;;;;;;;6198007;28;20085;-79
2022/08/17 16:34:53;;;;;;;16.98;7.85;;;;;;;;;;6196042;28;20011;-80
2022/08/17 16:37:54;;;;;;;11.95;7.70;;;;;;;;;;6179718;28;20026;-79
2022/08/17 16:40:54;;;;;;;12.98;7.43;;;;;;;;;;6189390;28;20033;-79
2022/08/17 16:43:55;;;;;;;13.93;8.00;;;;;;;;;;6193507;28;20029;-80
2022/08/17 16:46:56;;;;;;;12.60;8.32;;;;;;;;;;6199293;28;20257;-78
2022/08/17 16:49:56;;;;;;;16.00;10.30;;;;;;;;;;6193875;28;20026;-79
2022/08/17 16:53:09;;;;;;;13.85;8.00;;;;;;;;;;6199456;28;20109;-79
2022/08/17 16:56:09;;;;;;;15.25;8.82;;;;;;;;;;6197806;28;20010;-79
2022/08/17 16:59:10;;;;;;;12.83;8.43;;;;;;;;;;6203723;28;20053;-79
2022/08/17 17:02:11;;;;;;;20.90;8.63;;;;;;;;;;6198520;28;20034;-80
2022/08/17 17:05:30;;;;;;;20.75;9.43;;;;;;;;;;6203031;28;20094;-79
2022/08/17 17:08:36;;;;;;;16.80;8.98;;;;;;;;;;6202317;28;20105;-78
2022/08/17 17:11:40;;;;;;;15.23;8.82;;;;;;;;;;6203905;28;20072;-79
2022/08/17 17:14:42;;;;;;;16.25;8.40;;;;;;;;;;6200086;28;20069;-79
2022/08/17 17:17:43;;;;;;;18.35;9.23;;;;;;;;;;6193705;28;20023;-79
2022/08/17 17:20:52;;;;;;;12.48;7.97;;;;;;;;;;6204786;28;20026;-79
2022/08/17 17:23:59;;;;;;;17.85;9.10;;;;;;;;;;6199964;28;20017;-79
2022/08/17 17:26:59;;;;;;;21.75;9.18;;;;;;;;;;6201885;28;20030;-79
2022/08/17 17:29:59;;;;;;;;;;;;;;;;;;6195246;28;20058;-78
2022/08/17 17:32:59;;;;;;;17.45;9.77;;;;;;;;;;6209509;28;19932;-79
2022/08/17 17:35:59;;;;;;;;;;;;;;;;;;6204284;28;20030;-79
2022/08/17 17:39:05;;;;;;;16.08;9.63;;;;;;;;;;6199538;28;19913;-76
2022/08/17 17:42:08;;;;;;;11.07;8.68;;;;;;;;;;6200244;28;20153;-76
2022/08/17 17:45:15;;;;;;;17.63;9.73;;;;;;;;;;6197434;28;20037;-76
2022/08/17 17:48:16;;;;;;;14.80;11.00;;;;;;;;;;6197409;28;20035;-76
2022/08/17 17:51:36;;;;;;;26.33;11.77;;;;;;;;;;6206248;28;20014;-76
2022/08/17 17:54:36;;;;;;;20.63;12.85;;;;;;;;;;6203705;28;20089;-78
2022/08/17 17:58:13;;;;;;;18.47;11.77;;;;;;;;;;6194732;28;20118;-78
2022/08/17 18:01:30;;;;;;;18.65;12.13;;;;;;;;;;6206875;28;20557;-78
2022/08/17 18:04:36;;;;;;;16.98;12.23;;;;;;;;;;6213201;28;20040;-77
2022/08/17 18:07:56;;;;;;;16.08;13.02;;;;;;;;;;6206585;28;20459;-76
2022/08/17 18:10:57;;;;;;;18.88;12.52;;;;;;;;;;6197028;28;20065;-78
2022/08/17 18:14:03;;;;;;;22.60;13.20;;;;;;;;;;6209474;28;20038;-78
2022/08/17 18:17:04;;;;;;;20.23;12.80;;;;;;;;;;6201839;28;20033;-78
2022/08/17 18:20:05;;;;;;;18.30;12.32;;;;;;;;;;6203252;28;20096;-78
2022/08/17 18:23:06;;;;;;;22.95;13.50;;;;;;;;;;6198973;28;20011;-78
2022/08/17 18:26:06;;;;;;;21.30;14.40;;;;;;;;;;6184987;28;20041;-78
2022/08/17 18:29:29;;;;;;;19.07;13.50;;;;;;;;;;6195435;28;20080;-78